sensor_id;sensor_type;location;lat;lon;timestamp;temperature;humidity
5802;DHT22;2927;49.366;8.530;2022-08-19T00:01:25;21.10;1.00
5802;DHT22;2927;49.366;8.530;2022-08-19T00:03:52;21.10;1.00
5802;DHT22;2927;49.366;8.530;2022-08-19T00:06:17;21.10;1.00
5802;DHT22;2927;49.366;8.530;2022-08-19T00:08:43;21.00;99.90
5802;DHT22;2927;49.366;8.530;2022-08-19T00:11:09;21.00;99.90
5802;DHT22;2927;49.366;8.530;2022-08-19T00:13:35;21.00;1.00
5802;DHT22;2927;49.366;8.530;2022-08-19T00:16:01;21.10;99.90
5802;DHT22;2927;49.366;8.530;2022-08-19T00:18:27;21.10;1.00
5802;DHT22;2927;49.366;8.530;2022-08-19T00:20:53;21.10;7.80
5802;DHT22;2927;49.366;8.530;2022-08-19T00:23:19;21.10;91.80
5802;DHT22;2927;49.366;8.530;2022-08-19T00:25:44;21.20;1.00
5802;DHT22;2927;49.366;8.530;2022-08-19T00:28:10;21.20;1.00
5802;DHT22;2927;49.366;8.530;2022-08-19T00:30:36;21.20;62.80
5802;DHT22;2927;49.366;8.530;2022-08-19T00:33:02;21.20;1.00
5802;DHT22;2927;49.366;8.530;2022-08-19T00:35:28;21.20;1.00
5802;DHT22;2927;49.366;8.530;2022-08-19T00:37:54;21.20;99.90
5802;DHT22;2927;49.366;8.530;2022-08-19T00:40:21;21.20;99.90
5802;DHT22;2927;49.366;8.530;2022-08-19T00:42:47;21.20;1.00
5802;DHT22;2927;49.366;8.530;2022-08-19T00:45:22;21.10;1.00
5802;DHT22;2927;49.366;8.530;2022-08-19T00:47:48;21.00;99.90
5802;DHT22;2927;49.366;8.530;2022-08-19T00:50:17;21.00;1.00
5802;DHT22;2927;49.366;8.530;2022-08-19T00:52:47;21.00;1.00
5802;DHT22;2927;49.366;8.530;2022-08-19T00:55:17;21.00;1.00
5802;DHT22;2927;49.366;8.530;2022-08-19T00:57:47;21.00;1.00
5802;DHT22;2927;49.366;8.530;2022-08-19T01:00:17;21.00;1.00
5802;DHT22;2927;49.366;8.530;2022-08-19T01:02:43;21.00;1.00
5802;DHT22;2927;49.366;8.530;2022-08-19T01:05:11;21.10;1.00
5802;DHT22;2927;49.366;8.530;2022-08-19T01:07:39;21.10;99.90
5802;DHT22;2927;49.366;8.530;2022-08-19T01:10:08;21.00;99.90
5802;DHT22;2927;49.366;8.530;2022-08-19T01:12:36;21.00;1.00
5802;DHT22;2927;49.366;8.530;2022-08-19T01:15:03;21.00;99.90
5802;DHT22;2927;49.366;8.530;2022-08-19T01:17:28;21.00;1.00
5802;DHT22;2927;49.366;8.530;2022-08-19T01:19:54;21.00;1.00
5802;DHT22;2927;49.366;8.530;2022-08-19T01:22:29;21.00;1.00
5802;DHT22;2927;49.366;8.530;2022-08-19T01:24:55;21.00;1.00
5802;DHT22;2927;49.366;8.530;2022-08-19T01:27:21;21.00;99.90
5802;DHT22;2927;49.366;8.530;2022-08-19T01:29:46;21.00;1.00
5802;DHT22;2927;49.366;8.530;2022-08-19T01:32:15;21.00;1.00
5802;DHT22;2927;49.366;8.530;2022-08-19T01:34:41;21.00;1.00
5802;DHT22;2927;49.366;8.530;2022-08-19T01:37:11;20.90;1.00
5802;DHT22;2927;49.366;8.530;2022-08-19T01:39:38;20.90;99.90
5802;DHT22;2927;49.366;8.530;2022-08-19T01:42:05;20.90;1.00
5802;DHT22;2927;49.366;8.530;2022-08-19T01:44:32;20.90;1.00
5802;DHT22;2927;49.366;8.530;2022-08-19T01:46:58;20.90;1.00
5802;DHT22;2927;49.366;8.530;2022-08-19T01:49:25;20.90;34.70
5802;DHT22;2927;49.366;8.530;2022-08-19T01:51:52;20.80;99.90
5802;DHT22;2927;49.366;8.530;2022-08-19T01:54:20;20.80;1.00
5802;DHT22;2927;49.366;8.530;2022-08-19T01:56:46;20.80;1.00
5802;DHT22;2927;49.366;8.530;2022-08-19T01:59:15;20.80;1.00
5802;DHT22;2927;49.366;8.530;2022-08-19T02:01:41;20.80;1.00
5802;DHT22;2927;49.366;8.530;2022-08-19T02:04:07;20.80;1.00
5802;DHT22;2927;49.366;8.530;2022-08-19T02:06:32;20.80;1.00
5802;DHT22;2927;49.366;8.530;2022-08-19T02:08:58;20.90;1.00
5802;DHT22;2927;49.366;8.530;2022-08-19T02:11:31;20.90;1.00
5802;DHT22;2927;49.366;8.530;2022-08-19T02:13:57;20.90;99.90
5802;DHT22;2927;49.366;8.530;2022-08-19T02:16:23;21.00;1.00
5802;DHT22;2927;49.366;8.530;2022-08-19T02:18:50;21.00;1.00
5802;DHT22;2927;49.366;8.530;2022-08-19T02:21:17;21.10;1.00
5802;DHT22;2927;49.366;8.530;2022-08-19T02:23:43;21.10;99.90
5802;DHT22;2927;49.366;8.530;2022-08-19T02:26:09;21.00;1.00
5802;DHT22;2927;49.366;8.530;2022-08-19T02:28:35;21.00;1.00
5802;DHT22;2927;49.366;8.530;2022-08-19T02:31:02;21.00;1.00
5802;DHT22;2927;49.366;8.530;2022-08-19T02:33:28;21.00;1.00
5802;DHT22;2927;49.366;8.530;2022-08-19T02:35:53;21.00;1.00
5802;DHT22;2927;49.366;8.530;2022-08-19T02:38:19;20.90;1.00
5802;DHT22;2927;49.366;8.530;2022-08-19T02:40:53;20.90;99.90
5802;DHT22;2927;49.366;8.530;2022-08-19T02:43:20;20.90;1.00
5802;DHT22;2927;49.366;8.530;2022-08-19T02:45:46;20.80;1.00
5802;DHT22;2927;49.366;8.530;2022-08-19T02:48:14;20.80;1.00
5802;DHT22;2927;49.366;8.530;2022-08-19T02:50:42;20.70;80.50
5802;DHT22;2927;49.366;8.530;2022-08-19T02:53:08;20.70;1.00
5802;DHT22;2927;49.366;8.530;2022-08-19T02:55:34;20.80;1.00
5802;DHT22;2927;49.366;8.530;2022-08-19T02:57:59;20.80;1.00
5802;DHT22;2927;49.366;8.530;2022-08-19T03:00:26;20.90;1.00
5802;DHT22;2927;49.366;8.530;2022-08-19T03:02:52;20.90;25.30
5802;DHT22;2927;49.366;8.530;2022-08-19T03:05:17;20.90;1.00
5802;DHT22;2927;49.366;8.530;2022-08-19T03:07:43;20.90;1.00
5802;DHT22;2927;49.366;8.530;2022-08-19T03:10:09;20.70;1.00
5802;DHT22;2927;49.366;8.530;2022-08-19T03:12:36;20.70;1.00
5802;DHT22;2927;49.366;8.530;2022-08-19T03:15:03;20.60;1.00
5802;DHT22;2927;49.366;8.530;2022-08-19T03:17:29;20.50;1.00
5802;DHT22;2927;49.366;8.530;2022-08-19T03:19:54;20.50;99.90
5802;DHT22;2927;49.366;8.530;2022-08-19T03:22:20;20.50;99.90
5802;DHT22;2927;49.366;8.530;2022-08-19T03:24:46;20.50;1.00
5802;DHT22;2927;49.366;8.530;2022-08-19T03:27:11;20.40;1.00
5802;DHT22;2927;49.366;8.530;2022-08-19T03:29:37;20.40;1.00
5802;DHT22;2927;49.366;8.530;2022-08-19T03:32:05;20.40;1.00
5802;DHT22;2927;49.366;8.530;2022-08-19T03:34:33;20.30;1.00
5802;DHT22;2927;49.366;8.530;2022-08-19T03:37:04;20.30;1.00
5802;DHT22;2927;49.366;8.530;2022-08-19T03:39:30;20.30;1.00
5802;DHT22;2927;49.366;8.530;2022-08-19T03:41:56;20.30;1.00
5802;DHT22;2927;49.366;8.530;2022-08-19T03:44:23;20.30;1.00
5802;DHT22;2927;49.366;8.530;2022-08-19T03:46:55;20.40;1.00
5802;DHT22;2927;49.366;8.530;2022-08-19T03:49:24;20.40;1.00
5802;DHT22;2927;49.366;8.530;2022-08-19T03:51:50;20.40;1.00
5802;DHT22;2927;49.366;8.530;2022-08-19T03:54:18;20.40;1.00
5802;DHT22;2927;49.366;8.530;2022-08-19T03:56:46;20.40;1.00
5802;DHT22;2927;49.366;8.530;2022-08-19T03:59:16;20.40;1.00
5802;DHT22;2927;49.366;8.530;2022-08-19T04:01:42;20.40;1.00
5802;DHT22;2927;49.366;8.530;2022-08-19T04:04:09;20.30;1.00
5802;DHT22;2927;49.366;8.530;2022-08-19T04:06:36;20.30;1.00
5802;DHT22;2927;49.366;8.530;2022-08-19T04:09:05;20.30;1.00
5802;DHT22;2927;49.366;8.530;2022-08-19T04:11:35;20.30;1.00
5802;DHT22;2927;49.366;8.530;2022-08-19T04:14:01;20.30;1.00
5802;DHT22;2927;49.366;8.530;2022-08-19T04:16:27;20.20;1.00
5802;DHT22;2927;49.366;8.530;2022-08-19T04:18:58;20.20;1.00
5802;DHT22;2927;49.366;8.530;2022-08-19T04:21:26;20.20;1.00
5802;DHT22;2927;49.366;8.530;2022-08-19T04:23:53;20.20;1.00
5802;DHT22;2927;49.366;8.530;2022-08-19T04:26:33;20.20;1.00
5802;DHT22;2927;49.366;8.530;2022-08-19T04:29:06;20.20;1.00
5802;DHT22;2927;49.366;8.530;2022-08-19T04:31:33;20.10;1.00
5802;DHT22;2927;49.366;8.530;2022-08-19T04:34:03;20.20;1.00
5802;DHT22;2927;49.366;8.530;2022-08-19T04:36:32;20.20;1.00
5802;DHT22;2927;49.366;8.530;2022-08-19T04:39:02;20.20;1.00
5802;DHT22;2927;49.366;8.530;2022-08-19T04:41:29;20.20;1.00
5802;DHT22;2927;49.366;8.530;2022-08-19T04:44:14;20.20;1.00
5802;DHT22;2927;49.366;8.530;2022-08-19T04:46:46;20.20;1.00
5802;DHT22;2927;49.366;8.530;2022-08-19T04:49:13;20.10;1.00
5802;DHT22;2927;49.366;8.530;2022-08-19T04:51:41;20.20;1.00
5802;DHT22;2927;49.366;8.530;2022-08-19T04:54:07;20.20;1.00
5802;DHT22;2927;49.366;8.530;2022-08-19T04:56:33;20.20;1.00
5802;DHT22;2927;49.366;8.530;2022-08-19T04:58:59;20.20;1.00
5802;DHT22;2927;49.366;8.530;2022-08-19T05:01:29;20.20;1.00
5802;DHT22;2927;49.366;8.530;2022-08-19T05:03:55;20.30;1.00
5802;DHT22;2927;49.366;8.530;2022-08-19T05:06:22;20.30;1.00
5802;DHT22;2927;49.366;8.530;2022-08-19T05:08:49;20.30;1.00
5802;DHT22;2927;49.366;8.530;2022-08-19T05:11:26;20.30;1.00
5802;DHT22;2927;49.366;8.530;2022-08-19T05:13:52;20.30;1.00
5802;DHT22;2927;49.366;8.530;2022-08-19T05:16:19;20.30;1.00
5802;DHT22;2927;49.366;8.530;2022-08-19T05:18:45;20.40;99.90
5802;DHT22;2927;49.366;8.530;2022-08-19T05:21:30;20.40;99.90
5802;DHT22;2927;49.366;8.530;2022-08-19T05:24:15;20.50;99.90
5802;DHT22;2927;49.366;8.530;2022-08-19T05:26:44;20.50;99.90
5802;DHT22;2927;49.366;8.530;2022-08-19T05:29:14;20.60;99.90
5802;DHT22;2927;49.366;8.530;2022-08-19T05:31:41;20.60;1.00
5802;DHT22;2927;49.366;8.530;2022-08-19T05:34:07;20.60;1.00
5802;DHT22;2927;49.366;8.530;2022-08-19T05:36:41;20.60;1.00
5802;DHT22;2927;49.366;8.530;2022-08-19T05:39:08;20.70;1.00
5802;DHT22;2927;49.366;8.530;2022-08-19T05:41:35;20.80;1.00
5802;DHT22;2927;49.366;8.530;2022-08-19T05:44:02;20.90;99.90
5802;DHT22;2927;49.366;8.530;2022-08-19T05:46:31;21.00;1.00
5802;DHT22;2927;49.366;8.530;2022-08-19T05:48:56;20.90;1.00
5802;DHT22;2927;49.366;8.530;2022-08-19T05:51:23;20.90;1.00
5802;DHT22;2927;49.366;8.530;2022-08-19T05:53:50;20.90;1.00
5802;DHT22;2927;49.366;8.530;2022-08-19T05:56:16;21.00;1.00
5802;DHT22;2927;49.366;8.530;2022-08-19T05:58:43;21.00;1.00
5802;DHT22;2927;49.366;8.530;2022-08-19T06:01:12;21.00;1.00
5802;DHT22;2927;49.366;8.530;2022-08-19T06:03:38;21.10;99.90
5802;DHT22;2927;49.366;8.530;2022-08-19T06:06:05;21.10;1.00
5802;DHT22;2927;49.366;8.530;2022-08-19T06:08:31;21.10;1.00
5802;DHT22;2927;49.366;8.530;2022-08-19T06:10:57;21.10;1.00
5802;DHT22;2927;49.366;8.530;2022-08-19T06:13:23;21.10;99.90
5802;DHT22;2927;49.366;8.530;2022-08-19T06:15:49;21.00;99.90
5802;DHT22;2927;49.366;8.530;2022-08-19T06:18:15;21.00;1.00
5802;DHT22;2927;49.366;8.530;2022-08-19T06:20:42;21.10;1.00
5802;DHT22;2927;49.366;8.530;2022-08-19T06:23:08;21.20;99.90
5802;DHT22;2927;49.366;8.530;2022-08-19T06:25:34;21.20;99.90
5802;DHT22;2927;49.366;8.530;2022-08-19T06:28:00;21.10;99.90
5802;DHT22;2927;49.366;8.530;2022-08-19T06:30:25;21.00;1.00
5802;DHT22;2927;49.366;8.530;2022-08-19T06:32:51;21.10;1.00
5802;DHT22;2927;49.366;8.530;2022-08-19T06:35:17;21.20;99.90
5802;DHT22;2927;49.366;8.530;2022-08-19T06:37:42;21.30;1.00
5802;DHT22;2927;49.366;8.530;2022-08-19T06:40:10;21.20;1.00
5802;DHT22;2927;49.366;8.530;2022-08-19T06:42:37;21.20;99.90
5802;DHT22;2927;49.366;8.530;2022-08-19T06:45:04;21.30;1.00
5802;DHT22;2927;49.366;8.530;2022-08-19T06:47:30;21.30;1.00
5802;DHT22;2927;49.366;8.530;2022-08-19T06:49:58;21.30;99.90
5802;DHT22;2927;49.366;8.530;2022-08-19T06:52:27;21.40;99.90
5802;DHT22;2927;49.366;8.530;2022-08-19T06:54:52;21.50;99.90
5802;DHT22;2927;49.366;8.530;2022-08-19T06:57:19;21.60;99.90
5802;DHT22;2927;49.366;8.530;2022-08-19T06:59:45;21.70;1.00
5802;DHT22;2927;49.366;8.530;2022-08-19T07:02:10;21.70;1.00
5802;DHT22;2927;49.366;8.530;2022-08-19T07:04:37;21.70;1.00
5802;DHT22;2927;49.366;8.530;2022-08-19T07:07:09;21.80;99.90
5802;DHT22;2927;49.366;8.530;2022-08-19T07:09:37;21.90;99.90
5802;DHT22;2927;49.366;8.530;2022-08-19T07:12:05;22.00;1.00
5802;DHT22;2927;49.366;8.530;2022-08-19T07:14:32;22.00;1.00
5802;DHT22;2927;49.366;8.530;2022-08-19T07:17:00;22.10;1.00
5802;DHT22;2927;49.366;8.530;2022-08-19T07:19:26;22.20;1.00
5802;DHT22;2927;49.366;8.530;2022-08-19T07:21:53;22.30;99.90
5802;DHT22;2927;49.366;8.530;2022-08-19T07:24:21;22.10;1.00
5802;DHT22;2927;49.366;8.530;2022-08-19T07:26:49;22.10;1.00
5802;DHT22;2927;49.366;8.530;2022-08-19T07:29:16;22.20;65.60
5802;DHT22;2927;49.366;8.530;2022-08-19T07:31:42;22.10;99.90
5802;DHT22;2927;49.366;8.530;2022-08-19T07:34:10;22.20;99.90
5802;DHT22;2927;49.366;8.530;2022-08-19T07:36:38;22.40;99.90
5802;DHT22;2927;49.366;8.530;2022-08-19T07:39:11;22.50;1.00
5802;DHT22;2927;49.366;8.530;2022-08-19T07:41:37;22.40;99.90
5802;DHT22;2927;49.366;8.530;2022-08-19T07:44:05;22.40;1.00
5802;DHT22;2927;49.366;8.530;2022-08-19T07:46:34;22.30;1.00
5802;DHT22;2927;49.366;8.530;2022-08-19T07:49:01;22.30;1.00
5802;DHT22;2927;49.366;8.530;2022-08-19T07:51:28;22.30;1.00
5802;DHT22;2927;49.366;8.530;2022-08-19T07:53:54;22.30;99.90
5802;DHT22;2927;49.366;8.530;2022-08-19T07:56:20;22.30;1.00
5802;DHT22;2927;49.366;8.530;2022-08-19T07:58:49;22.20;1.00
5802;DHT22;2927;49.366;8.530;2022-08-19T08:01:18;22.30;1.00
5802;DHT22;2927;49.366;8.530;2022-08-19T08:03:45;22.40;99.90
5802;DHT22;2927;49.366;8.530;2022-08-19T08:06:30;22.50;1.00
5802;DHT22;2927;49.366;8.530;2022-08-19T08:09:15;22.50;84.30
5802;DHT22;2927;49.366;8.530;2022-08-19T08:11:59;22.60;1.00
5802;DHT22;2927;49.366;8.530;2022-08-19T08:14:31;22.50;1.00
5802;DHT22;2927;49.366;8.530;2022-08-19T08:16:58;22.60;1.00
5802;DHT22;2927;49.366;8.530;2022-08-19T08:19:26;22.90;99.90
5802;DHT22;2927;49.366;8.530;2022-08-19T08:21:54;22.90;1.00
5802;DHT22;2927;49.366;8.530;2022-08-19T08:24:20;23.10;1.00
5802;DHT22;2927;49.366;8.530;2022-08-19T08:26:46;23.00;99.90
5802;DHT22;2927;49.366;8.530;2022-08-19T08:29:12;23.10;99.90
5802;DHT22;2927;49.366;8.530;2022-08-19T08:31:40;23.20;1.00
5802;DHT22;2927;49.366;8.530;2022-08-19T08:34:07;23.40;43.60
5802;DHT22;2927;49.366;8.530;2022-08-19T08:36:39;23.50;99.90
5802;DHT22;2927;49.366;8.530;2022-08-19T08:39:08;23.50;99.90
5802;DHT22;2927;49.366;8.530;2022-08-19T08:41:44;23.70;99.90
5802;DHT22;2927;49.366;8.530;2022-08-19T08:44:28;23.90;1.00
5802;DHT22;2927;49.366;8.530;2022-08-19T08:47:01;23.90;1.00
5802;DHT22;2927;49.366;8.530;2022-08-19T08:49:40;23.90;1.00
5802;DHT22;2927;49.366;8.530;2022-08-19T08:52:12;23.90;1.00
5802;DHT22;2927;49.366;8.530;2022-08-19T08:54:41;24.20;1.00
5802;DHT22;2927;49.366;8.530;2022-08-19T08:57:12;24.20;99.90
5802;DHT22;2927;49.366;8.530;2022-08-19T08:59:40;24.30;99.90
5802;DHT22;2927;49.366;8.530;2022-08-19T09:02:07;24.20;95.90
5802;DHT22;2927;49.366;8.530;2022-08-19T09:04:37;24.30;95.90
5802;DHT22;2927;49.366;8.530;2022-08-19T09:09:38;24.60;1.00
5802;DHT22;2927;49.366;8.530;2022-08-19T09:17:15;24.40;1.00
5802;DHT22;2927;49.366;8.530;2022-08-19T09:20:02;24.50;1.00
5802;DHT22;2927;49.366;8.530;2022-08-19T09:22:32;25.00;1.00
5802;DHT22;2927;49.366;8.530;2022-08-19T09:24:58;25.00;1.00
5802;DHT22;2927;49.366;8.530;2022-08-19T09:27:25;25.10;99.90
5802;DHT22;2927;49.366;8.530;2022-08-19T09:29:52;25.10;1.00
5802;DHT22;2927;49.366;8.530;2022-08-19T09:32:19;25.60;99.90
5802;DHT22;2927;49.366;8.530;2022-08-19T09:34:44;26.10;99.90
5802;DHT22;2927;49.366;8.530;2022-08-19T09:37:10;25.80;99.90
5802;DHT22;2927;49.366;8.530;2022-08-19T09:39:38;25.50;99.90
5802;DHT22;2927;49.366;8.530;2022-08-19T09:42:04;25.20;99.90
5802;DHT22;2927;49.366;8.530;2022-08-19T09:44:34;24.80;1.00
5802;DHT22;2927;49.366;8.530;2022-08-19T09:46:59;24.80;1.00
5802;DHT22;2927;49.366;8.530;2022-08-19T09:49:25;24.90;1.00
5802;DHT22;2927;49.366;8.530;2022-08-19T09:51:52;24.90;1.00
5802;DHT22;2927;49.366;8.530;2022-08-19T09:54:19;25.20;99.90
5802;DHT22;2927;49.366;8.530;2022-08-19T09:56:45;25.00;99.90
5802;DHT22;2927;49.366;8.530;2022-08-19T09:59:10;25.20;99.90
5802;DHT22;2927;49.366;8.530;2022-08-19T10:01:37;25.20;99.90
5802;DHT22;2927;49.366;8.530;2022-08-19T10:04:03;25.60;99.90
5802;DHT22;2927;49.366;8.530;2022-08-19T10:06:37;25.70;99.90
5802;DHT22;2927;49.366;8.530;2022-08-19T10:09:07;25.70;99.90
5802;DHT22;2927;49.366;8.530;2022-08-19T10:11:34;26.10;83.40
5802;DHT22;2927;49.366;8.530;2022-08-19T10:14:03;26.10;54.90
5802;DHT22;2927;49.366;8.530;2022-08-19T10:16:31;26.20;79.80
5802;DHT22;2927;49.366;8.530;2022-08-19T10:18:57;26.10;51.00
5802;DHT22;2927;49.366;8.530;2022-08-19T10:21:31;25.70;99.90
5802;DHT22;2927;49.366;8.530;2022-08-19T10:23:59;25.70;99.90
5802;DHT22;2927;49.366;8.530;2022-08-19T10:26:32;25.90;99.90
5802;DHT22;2927;49.366;8.530;2022-08-19T10:28:58;26.00;99.90
5802;DHT22;2927;49.366;8.530;2022-08-19T10:31:28;25.80;99.90
5802;DHT22;2927;49.366;8.530;2022-08-19T10:33:54;26.00;78.80
5802;DHT22;2927;49.366;8.530;2022-08-19T10:36:31;26.10;27.50
5802;DHT22;2927;49.366;8.530;2022-08-19T10:38:59;26.20;13.50
5802;DHT22;2927;49.366;8.530;2022-08-19T10:41:28;26.40;1.00
5802;DHT22;2927;49.366;8.530;2022-08-19T10:43:57;26.00;1.00
5802;DHT22;2927;49.366;8.530;2022-08-19T10:46:25;25.70;66.00
5802;DHT22;2927;49.366;8.530;2022-08-19T10:48:51;26.20;18.50
5802;DHT22;2927;49.366;8.530;2022-08-19T10:51:17;26.70;1.00
5802;DHT22;2927;49.366;8.530;2022-08-19T10:54:03;26.90;1.00
5802;DHT22;2927;49.366;8.530;2022-08-19T10:56:28;26.40;1.00
5802;DHT22;2927;49.366;8.530;2022-08-19T10:59:13;26.50;1.00
5802;DHT22;2927;49.366;8.530;2022-08-19T11:01:40;26.70;1.00
5802;DHT22;2927;49.366;8.530;2022-08-19T11:04:06;27.00;1.00
5802;DHT22;2927;49.366;8.530;2022-08-19T11:06:35;27.00;1.00
5802;DHT22;2927;49.366;8.530;2022-08-19T11:09:02;26.60;1.00
5802;DHT22;2927;49.366;8.530;2022-08-19T11:11:28;26.20;1.00
5802;DHT22;2927;49.366;8.530;2022-08-19T11:13:54;25.90;1.00
5802;DHT22;2927;49.366;8.530;2022-08-19T11:16:23;26.00;1.00
5802;DHT22;2927;49.366;8.530;2022-08-19T11:18:51;26.00;1.00
5802;DHT22;2927;49.366;8.530;2022-08-19T11:21:26;26.20;1.00
5802;DHT22;2927;49.366;8.530;2022-08-19T11:23:55;26.30;1.00
5802;DHT22;2927;49.366;8.530;2022-08-19T11:26:21;26.40;1.00
5802;DHT22;2927;49.366;8.530;2022-08-19T11:28:48;26.80;1.00
5802;DHT22;2927;49.366;8.530;2022-08-19T11:31:17;26.80;1.00
5802;DHT22;2927;49.366;8.530;2022-08-19T11:33:44;26.50;1.00
5802;DHT22;2927;49.366;8.530;2022-08-19T11:36:09;26.60;1.00
5802;DHT22;2927;49.366;8.530;2022-08-19T11:38:36;26.80;1.00
5802;DHT22;2927;49.366;8.530;2022-08-19T11:41:04;26.70;1.00
5802;DHT22;2927;49.366;8.530;2022-08-19T11:43:31;26.70;1.00
5802;DHT22;2927;49.366;8.530;2022-08-19T11:45:57;26.50;1.00
5802;DHT22;2927;49.366;8.530;2022-08-19T11:48:23;26.40;1.00
5802;DHT22;2927;49.366;8.530;2022-08-19T11:50:49;26.40;1.00
5802;DHT22;2927;49.366;8.530;2022-08-19T11:53:16;26.40;1.00
5802;DHT22;2927;49.366;8.530;2022-08-19T11:55:43;26.70;1.00
5802;DHT22;2927;49.366;8.530;2022-08-19T11:58:10;26.80;1.00
5802;DHT22;2927;49.366;8.530;2022-08-19T12:00:37;27.10;1.00
5802;DHT22;2927;49.366;8.530;2022-08-19T12:03:03;27.20;1.00
5802;DHT22;2927;49.366;8.530;2022-08-19T12:05:28;27.10;1.00
5802;DHT22;2927;49.366;8.530;2022-08-19T12:07:54;27.10;1.00
5802;DHT22;2927;49.366;8.530;2022-08-19T12:10:20;27.00;1.00
5802;DHT22;2927;49.366;8.530;2022-08-19T12:12:46;27.20;1.00
5802;DHT22;2927;49.366;8.530;2022-08-19T12:15:12;27.30;1.00
5802;DHT22;2927;49.366;8.530;2022-08-19T12:17:42;27.60;1.00
5802;DHT22;2927;49.366;8.530;2022-08-19T12:20:12;27.00;1.00
5802;DHT22;2927;49.366;8.530;2022-08-19T12:22:39;26.90;1.00
5802;DHT22;2927;49.366;8.530;2022-08-19T12:25:08;27.10;1.00
5802;DHT22;2927;49.366;8.530;2022-08-19T12:27:34;27.30;1.00
5802;DHT22;2927;49.366;8.530;2022-08-19T12:30:01;27.40;1.00
5802;DHT22;2927;49.366;8.530;2022-08-19T12:32:27;27.30;1.00
5802;DHT22;2927;49.366;8.530;2022-08-19T12:34:52;27.10;1.00
5802;DHT22;2927;49.366;8.530;2022-08-19T12:37:18;27.10;1.00
5802;DHT22;2927;49.366;8.530;2022-08-19T12:39:44;27.30;1.00
5802;DHT22;2927;49.366;8.530;2022-08-19T12:42:10;27.30;1.00
5802;DHT22;2927;49.366;8.530;2022-08-19T12:44:39;27.40;1.00
5802;DHT22;2927;49.366;8.530;2022-08-19T12:47:08;27.70;1.00
5802;DHT22;2927;49.366;8.530;2022-08-19T12:49:34;27.90;1.00
5802;DHT22;2927;49.366;8.530;2022-08-19T12:52:06;28.00;1.00
5802;DHT22;2927;49.366;8.530;2022-08-19T12:54:33;27.80;99.90
5802;DHT22;2927;49.366;8.530;2022-08-19T12:56:58;27.60;99.90
5802;DHT22;2927;49.366;8.530;2022-08-19T12:59:25;27.40;99.90
5802;DHT22;2927;49.366;8.530;2022-08-19T13:01:51;27.30;99.90
5802;DHT22;2927;49.366;8.530;2022-08-19T13:04:17;27.60;99.90
5802;DHT22;2927;49.366;8.530;2022-08-19T13:06:42;27.80;99.90
5802;DHT22;2927;49.366;8.530;2022-08-19T13:09:08;28.00;99.90
5802;DHT22;2927;49.366;8.530;2022-08-19T13:11:35;28.10;99.90
5802;DHT22;2927;49.366;8.530;2022-08-19T13:14:02;28.30;99.90
5802;DHT22;2927;49.366;8.530;2022-08-19T13:16:29;28.60;99.90
5802;DHT22;2927;49.366;8.530;2022-08-19T13:18:55;28.50;99.90
5802;DHT22;2927;49.366;8.530;2022-08-19T13:21:25;28.60;99.90
5802;DHT22;2927;49.366;8.530;2022-08-19T13:23:52;29.10;99.90
5802;DHT22;2927;49.366;8.530;2022-08-19T13:26:18;29.10;99.90
5802;DHT22;2927;49.366;8.530;2022-08-19T13:28:44;28.60;99.90
5802;DHT22;2927;49.366;8.530;2022-08-19T13:31:31;28.50;99.90
5802;DHT22;2927;49.366;8.530;2022-08-19T13:34:17;28.50;99.90
5802;DHT22;2927;49.366;8.530;2022-08-19T13:36:43;28.40;99.90
5802;DHT22;2927;49.366;8.530;2022-08-19T13:39:09;28.40;99.90
5802;DHT22;2927;49.366;8.530;2022-08-19T13:41:35;28.30;99.90
5802;DHT22;2927;49.366;8.530;2022-08-19T13:44:02;28.40;99.90
5802;DHT22;2927;49.366;8.530;2022-08-19T13:46:28;28.50;99.90
5802;DHT22;2927;49.366;8.530;2022-08-19T13:48:54;28.50;99.90
5802;DHT22;2927;49.366;8.530;2022-08-19T13:51:21;28.50;99.90
5802;DHT22;2927;49.366;8.530;2022-08-19T13:53:47;28.30;99.90
5802;DHT22;2927;49.366;8.530;2022-08-19T13:56:16;28.70;99.90
5802;DHT22;2927;49.366;8.530;2022-08-19T13:58:42;29.00;99.90
5802;DHT22;2927;49.366;8.530;2022-08-19T14:01:09;28.80;99.90
5802;DHT22;2927;49.366;8.530;2022-08-19T14:03:35;28.60;99.90
5802;DHT22;2927;49.366;8.530;2022-08-19T14:06:00;28.60;99.90
5802;DHT22;2927;49.366;8.530;2022-08-19T14:08:27;28.70;99.90
5802;DHT22;2927;49.366;8.530;2022-08-19T14:10:54;28.70;99.90
5802;DHT22;2927;49.366;8.530;2022-08-19T14:13:22;28.90;99.90
5802;DHT22;2927;49.366;8.530;2022-08-19T14:15:49;28.60;99.90
5802;DHT22;2927;49.366;8.530;2022-08-19T14:18:16;28.60;99.90
5802;DHT22;2927;49.366;8.530;2022-08-19T14:20:42;28.50;99.90
5802;DHT22;2927;49.366;8.530;2022-08-19T14:23:08;28.60;99.90
5802;DHT22;2927;49.366;8.530;2022-08-19T14:25:33;28.70;99.90
5802;DHT22;2927;49.366;8.530;2022-08-19T14:27:59;28.90;99.90
5802;DHT22;2927;49.366;8.530;2022-08-19T14:30:28;29.00;99.90
5802;DHT22;2927;49.366;8.530;2022-08-19T14:32:58;29.00;99.90
5802;DHT22;2927;49.366;8.530;2022-08-19T14:35:26;29.00;99.90
5802;DHT22;2927;49.366;8.530;2022-08-19T14:37:52;29.00;99.90
5802;DHT22;2927;49.366;8.530;2022-08-19T14:40:23;28.90;99.90
5802;DHT22;2927;49.366;8.530;2022-08-19T14:43:03;29.10;99.90
5802;DHT22;2927;49.366;8.530;2022-08-19T14:45:36;29.20;99.90
5802;DHT22;2927;49.366;8.530;2022-08-19T14:48:07;29.30;99.90
5802;DHT22;2927;49.366;8.530;2022-08-19T14:50:33;29.50;99.90
5802;DHT22;2927;49.366;8.530;2022-08-19T14:53:02;29.60;99.90
5802;DHT22;2927;49.366;8.530;2022-08-19T14:55:29;29.50;99.90
5802;DHT22;2927;49.366;8.530;2022-08-19T14:57:55;29.20;99.90
5802;DHT22;2927;49.366;8.530;2022-08-19T15:00:21;29.00;99.90
5802;DHT22;2927;49.366;8.530;2022-08-19T15:02:48;29.20;99.90
5802;DHT22;2927;49.366;8.530;2022-08-19T15:05:14;29.60;99.90
5802;DHT22;2927;49.366;8.530;2022-08-19T15:07:39;29.70;99.90
5802;DHT22;2927;49.366;8.530;2022-08-19T15:10:07;29.50;99.90
5802;DHT22;2927;49.366;8.530;2022-08-19T15:12:37;29.50;99.90
5802;DHT22;2927;49.366;8.530;2022-08-19T15:15:09;29.40;99.90
5802;DHT22;2927;49.366;8.530;2022-08-19T15:17:38;29.40;99.90
5802;DHT22;2927;49.366;8.530;2022-08-19T15:20:05;29.30;99.90
5802;DHT22;2927;49.366;8.530;2022-08-19T15:22:31;29.20;99.90
5802;DHT22;2927;49.366;8.530;2022-08-19T15:24:57;29.10;99.90
5802;DHT22;2927;49.366;8.530;2022-08-19T15:27:22;29.10;99.90
5802;DHT22;2927;49.366;8.530;2022-08-19T15:29:48;29.00;99.90
5802;DHT22;2927;49.366;8.530;2022-08-19T15:32:13;28.90;99.90
5802;DHT22;2927;49.366;8.530;2022-08-19T15:34:39;29.00;99.90
5802;DHT22;2927;49.366;8.530;2022-08-19T15:37:04;29.00;99.90
5802;DHT22;2927;49.366;8.530;2022-08-19T15:39:31;28.90;99.90
5802;DHT22;2927;49.366;8.530;2022-08-19T15:41:57;29.00;99.90
5802;DHT22;2927;49.366;8.530;2022-08-19T15:44:25;29.00;99.90
5802;DHT22;2927;49.366;8.530;2022-08-19T15:46:50;28.90;99.90
5802;DHT22;2927;49.366;8.530;2022-08-19T15:49:17;28.80;99.90
5802;DHT22;2927;49.366;8.530;2022-08-19T15:51:46;28.80;99.90
5802;DHT22;2927;49.366;8.530;2022-08-19T15:54:15;28.90;99.90
5802;DHT22;2927;49.366;8.530;2022-08-19T15:56:41;28.80;99.90
5802;DHT22;2927;49.366;8.530;2022-08-19T15:59:26;29.00;99.90
5802;DHT22;2927;49.366;8.530;2022-08-19T16:02:10;28.90;99.90
5802;DHT22;2927;49.366;8.530;2022-08-19T16:04:54;28.90;99.90
5802;DHT22;2927;49.366;8.530;2022-08-19T16:07:38;29.00;99.90
5802;DHT22;2927;49.366;8.530;2022-08-19T16:10:05;29.30;99.90
5802;DHT22;2927;49.366;8.530;2022-08-19T16:12:31;29.40;99.90
5802;DHT22;2927;49.366;8.530;2022-08-19T16:14:57;29.40;99.90
5802;DHT22;2927;49.366;8.530;2022-08-19T16:17:23;29.40;99.90
5802;DHT22;2927;49.366;8.530;2022-08-19T16:19:49;29.70;99.90
5802;DHT22;2927;49.366;8.530;2022-08-19T16:22:15;30.10;99.90